Time;durP1;ratioP1;P1;durP2;ratioP2;P2;SDS_P1;SDS_P2;PMS_P1;PMS_P2;Temp;Humidity;BMP_temperature;BMP_pressure;BME280_temperature;BME280_humidity;BME280_pressure;Samples;Min_cycle;Max_cycle;Signal;HPM_P1;HPM_P2
2023/04/05 00:00:31;;;;;;;10.20;6.07;;;1.30;65.10;;;;;;4959191;28;20035;-63
2023/04/05 00:02:58;;;;;;;10.50;6.65;;;1.30;65.10;;;;;;4959667;28;20585;-62
2023/04/05 00:05:33;;;;;;;9.02;6.65;;;1.30;65.10;;;;;;4954302;28;20035;-62
2023/04/05 00:08:00;;;;;;;8.68;6.60;;;1.30;65.30;;;;;;4954671;28;20419;-63
2023/04/05 00:10:30;;;;;;;8.45;6.30;;;1.30;65.40;;;;;;4956274;28;20479;-62
2023/04/05 00:12:56;;;;;;;10.60;6.00;;;1.30;65.40;;;;;;4952668;28;20058;-63
2023/04/05 00:15:22;;;;;;;11.40;6.43;;;1.30;65.40;;;;;;4954264;28;20058;-62
2023/04/05 00:17:48;;;;;;;9.50;6.72;;;1.30;65.50;;;;;;4953924;28;20046;-61
2023/04/05 00:20:13;;;;;;;9.40;5.85;;;1.20;65.70;;;;;;4955507;28;20159;-63
2023/04/05 00:22:45;;;;;;;9.20;5.95;;;1.20;65.70;;;;;;4954905;28;20039;-62
2023/04/05 00:25:11;;;;;;;9.32;6.43;;;1.20;65.70;;;;;;4957475;28;20035;-62
2023/04/05 00:27:37;;;;;;;9.13;6.10;;;1.20;65.80;;;;;;4954505;28;20122;-62
2023/04/05 00:30:04;;;;;;;7.93;6.00;;;1.20;65.80;;;;;;4955521;28;20962;-62
2023/04/05 00:32:29;;;;;;;9.88;5.97;;;1.10;65.80;;;;;;4954130;28;20037;-61
2023/04/05 00:34:55;;;;;;;9.48;6.47;;;1.10;66.00;;;;;;4957690;28;20034;-62
2023/04/05 00:37:21;;;;;;;10.95;6.55;;;1.20;66.00;;;;;;4954195;28;20035;-63
2023/04/05 00:39:46;;;;;;;9.55;6.53;;;1.20;66.10;;;;;;4955358;28;20052;-62
2023/04/05 00:42:13;;;;;;;11.45;6.20;;;1.10;66.00;;;;;;4954327;28;20105;-63
2023/04/05 00:44:38;;;;;;;8.85;5.95;;;1.10;66.10;;;;;;4956798;28;20414;-63
2023/04/05 00:47:05;;;;;;;12.73;6.90;;;1.10;66.00;;;;;;4954711;28;20031;-63
2023/04/05 00:49:35;;;;;;;12.55;6.70;;;1.10;66.00;;;;;;4957825;28;20062;-62
2023/04/05 00:52:01;;;;;;;9.43;6.57;;;1.10;66.10;;;;;;4957571;28;20070;-63
2023/04/05 00:54:28;;;;;;;11.77;6.55;;;1.10;66.00;;;;;;4955958;28;20496;-62
2023/04/05 00:57:01;;;;;;;11.82;6.78;;;1.10;66.10;;;;;;4954711;28;20053;-62
2023/04/05 00:59:30;;;;;;;11.57;7.05;;;1.10;66.30;;;;;;4952972;28;20067;-62
2023/04/05 01:02:03;;;;;;;15.27;8.27;;;1.10;66.10;;;;;;4956609;28;20035;-62
2023/04/05 01:04:31;;;;;;;14.38;8.07;;;1.10;66.40;;;;;;4955885;28;20445;-62
2023/04/05 01:07:06;;;;;;;18.90;8.68;;;1.00;66.30;;;;;;4953543;28;20396;-62
2023/04/05 01:09:50;;;;;;;15.40;9.00;;;1.00;66.50;;;;;;4956389;28;20027;-62
2023/04/05 01:12:17;;;;;;;19.77;10.07;;;0.90;66.80;;;;;;4953783;28;20066;-63
2023/04/05 01:14:54;;;;;;;11.82;8.00;;;0.90;66.50;;;;;;4956823;28;20313;-63
2023/04/05 01:17:22;;;;;;;12.15;8.00;;;0.90;66.80;;;;;;4952102;28;20102;-63
2023/04/05 01:20:09;;;;;;;13.70;8.27;;;0.80;66.60;;;;;;4956074;28;20074;-61
2023/04/05 01:22:41;;;;;;;10.60;7.40;;;0.80;67.00;;;;;;4951599;28;20566;-62
2023/04/05 01:25:31;;;;;;;12.02;7.40;;;0.80;67.20;;;;;;4956203;28;20073;-62
2023/04/05 01:27:57;;;;;;;10.93;7.63;;;0.70;67.30;;;;;;4956235;28;20031;-62
2023/04/05 01:30:34;;;;;;;11.38;7.50;;;0.70;67.10;;;;;;4955745;28;20042;-63
2023/04/05 01:33:02;;;;;;;10.60;7.70;;;0.70;67.40;;;;;;4951681;28;20146;-62
2023/04/05 01:35:50;;;;;;;11.48;7.35;;;0.70;67.20;;;;;;4952917;28;20053;-63
2023/04/05 01:38:21;;;;;;;11.27;7.65;;;0.70;67.70;;;;;;4954837;28;20507;-63
2023/04/05 01:40:48;;;;;;;12.40;7.53;;;0.70;67.20;;;;;;4952600;28;20039;-62
2023/04/05 01:43:15;;;;;;;12.68;7.78;;;0.70;67.20;;;;;;4953451;28;20097;-63
2023/04/05 01:45:41;;;;;;;14.18;7.68;;;0.60;67.00;;;;;;4953607;28;20085;-63
2023/04/05 01:48:07;;;;;;;15.00;8.15;;;0.60;67.20;;;;;;4953343;28;20104;-62
2023/04/05 01:50:32;;;;;;;14.43;8.07;;;0.60;67.50;;;;;;4951470;28;20126;-63
2023/04/05 01:52:58;;;;;;;18.15;9.23;;;0.50;67.50;;;;;;4955293;28;20046;-63
2023/04/05 01:55:24;;;;;;;18.83;9.50;;;0.50;67.60;;;;;;4953614;28;20050;-63
2023/04/05 01:57:53;;;;;;;14.70;8.00;;;0.50;67.60;;;;;;4953693;28;20124;-62
2023/04/05 02:00:18;;;;;;;13.77;8.13;;;0.50;67.70;;;;;;4952177;28;20114;-62
2023/04/05 02:02:44;;;;;;;13.60;7.88;;;0.60;67.70;;;;;;4953821;28;20141;-62
2023/04/05 02:05:09;;;;;;;13.20;7.82;;;0.50;67.60;;;;;;4953326;28;20033;-61
2023/04/05 02:07:35;;;;;;;11.80;7.53;;;0.50;67.60;;;;;;4957233;28;20047;-63
2023/04/05 02:10:01;;;;;;;10.68;7.60;;;0.50;67.60;;;;;;4956409;28;20126;-63
2023/04/05 02:12:26;;;;;;;12.50;7.63;;;0.50;67.70;;;;;;4957673;28;20089;-62
2023/04/05 02:14:52;;;;;;;10.35;7.40;;;0.40;67.70;;;;;;4959158;28;20043;-62
2023/04/05 02:17:18;;;;;;;11.75;7.35;;;0.40;68.00;;;;;;4955280;28;20039;-62
2023/04/05 02:19:45;;;;;;;10.98;7.25;;;0.40;67.90;;;;;;4956345;28;20035;-61
2023/04/05 02:22:11;;;;;;;10.88;7.47;;;0.30;67.90;;;;;;4958708;28;20031;-61
2023/04/05 02:24:37;;;;;;;11.52;7.55;;;0.30;68.00;;;;;;4957925;28;20121;-62
2023/04/05 02:27:02;;;;;;;11.88;7.22;;;0.30;68.00;;;;;;4957662;28;20031;-62
2023/04/05 02:29:28;;;;;;;9.27;7.38;;;0.20;68.00;;;;;;4959420;28;20161;-62
2023/04/05 02:31:54;;;;;;;10.40;7.35;;;0.20;68.20;;;;;;4956319;28;20583;-62
2023/04/05 02:34:21;;;;;;;12.23;7.82;;;0.10;68.20;;;;;;4958193;28;20124;-62
2023/04/05 02:36:51;;;;;;;13.55;8.07;;;0.10;68.40;;;;;;4955629;28;20085;-62
2023/04/05 02:39:17;;;;;;;11.88;7.70;;;0.00;68.50;;;;;;4955781;28;20605;-63
2023/04/05 02:41:43;;;;;;;14.00;8.23;;;0.00;68.70;;;;;;4954414;28;20130;-63
2023/04/05 02:44:08;;;;;;;12.23;8.27;;;0.00;68.70;;;;;;4956243;28;20519;-63
2023/04/05 02:46:34;;;;;;;14.82;7.75;;;-0.10;68.80;;;;;;4955512;28;20698;-62
2023/04/05 02:48:59;;;;;;;14.00;8.00;;;-0.10;69.00;;;;;;4953978;28;20066;-62
2023/04/05 02:51:25;;;;;;;13.18;7.95;;;-0.20;69.10;;;;;;4954588;28;20026;-63
2023/04/05 02:53:51;;;;;;;11.70;7.13;;;-0.20;69.10;;;;;;4955651;28;20415;-60
2023/04/05 02:56:17;;;;;;;11.07;8.00;;;-0.20;69.00;;;;;;4956999;28;20035;-62
2023/04/05 02:58:44;;;;;;;13.60;7.68;;;-0.20;69.10;;;;;;4955152;28;20045;-62
2023/04/05 03:01:10;;;;;;;11.38;7.90;;;-0.20;69.10;;;;;;4956704;28;20073;-62
2023/04/05 03:03:36;;;;;;;10.88;6.95;;;-0.30;69.10;;;;;;4956513;28;20039;-61
2023/04/05 03:06:10;;;;;;;13.75;7.78;;;-0.30;69.10;;;;;;4960105;28;20518;-61
2023/04/05 03:08:45;;;;;;;11.35;7.97;;;-0.30;69.10;;;;;;4956195;28;20405;-62
2023/04/05 03:11:11;;;;;;;14.25;7.45;;;-0.30;69.30;;;;;;4956494;28;20035;-63
2023/04/05 03:13:37;;;;;;;13.40;7.70;;;-0.30;69.10;;;;;;4956590;28;20057;-62
2023/04/05 03:16:04;;;;;;;11.25;7.38;;;-0.30;69.10;;;;;;4957993;28;20725;-62
2023/04/05 03:18:30;;;;;;;10.75;7.53;;;-0.30;69.10;;;;;;4936050;28;20473;-62
2023/04/05 03:20:56;;;;;;;11.32;7.63;;;-0.30;69.20;;;;;;4957594;28;20075;-62
2023/04/05 03:23:29;;;;;;;14.02;8.18;;;-0.30;69.00;;;;;;4956334;28;20041;-62
2023/04/05 03:26:01;;;;;;;13.70;8.27;;;-0.30;69.20;;;;;;4955542;28;20047;-61
2023/04/05 03:28:28;;;;;;;10.98;7.63;;;-0.30;69.10;;;;;;4953451;28;20085;-62
2023/04/05 03:30:54;;;;;;;12.38;7.50;;;-0.40;69.10;;;;;;4956806;28;20300;-62
2023/04/05 03:33:20;;;;;;;12.35;8.18;;;-0.40;69.10;;;;;;4956772;28;20415;-62
2023/04/05 03:35:46;;;;;;;14.45;8.18;;;-0.40;69.10;;;;;;4955932;28;20118;-62
2023/04/05 03:38:12;;;;;;;11.68;7.60;;;-0.40;69.20;;;;;;4955519;28;20596;-62
2023/04/05 03:40:39;;;;;;;13.77;8.30;;;-0.50;69.10;;;;;;4955876;28;20038;-62
2023/04/05 03:43:05;;;;;;;12.63;7.50;;;-0.50;69.10;;;;;;4955168;28;20027;-64
2023/04/05 03:45:30;;;;;;;12.60;8.38;;;-0.50;69.20;;;;;;4955638;28;20097;-62
2023/04/05 03:47:57;;;;;;;14.35;8.50;;;-0.50;69.30;;;;;;4939534;28;20374;-62
2023/04/05 03:50:23;;;;;;;11.90;7.90;;;-0.50;69.20;;;;;;4955553;28;20035;-64
2023/04/05 03:52:49;;;;;;;11.50;7.53;;;-0.60;69.10;;;;;;4955289;28;20046;-64
2023/04/05 03:55:15;;;;;;;13.63;8.63;;;-0.60;69.30;;;;;;4957536;28;20058;-63
2023/04/05 03:57:41;;;;;;;14.70;7.55;;;-0.70;69.30;;;;;;4954104;28;20034;-64
2023/04/05 04:00:16;;;;;;;12.43;8.05;;;-0.70;69.30;;;;;;4954957;28;20039;-64
2023/04/05 04:02:51;;;;;;;12.40;8.20;;;-0.70;69.60;;;;;;4957558;28;20082;-63
2023/04/05 04:05:17;;;;;;;13.63;7.95;;;-0.70;70.00;;;;;;4956001;28;20050;-63
2023/04/05 04:07:43;;;;;;;12.57;8.30;;;-0.60;69.80;;;;;;4955502;28;20402;-60
2023/04/05 04:10:11;;;;;;;13.38;8.43;;;-0.60;69.90;;;;;;4954896;28;20057;-62
2023/04/05 04:12:37;;;;;;;13.40;8.25;;;-0.60;69.70;;;;;;4954603;28;20050;-63
2023/04/05 04:15:04;;;;;;;12.50;9.10;;;-0.60;69.60;;;;;;4955628;28;20058;-63
2023/04/05 04:17:31;;;;;;;16.15;9.40;;;-0.60;69.50;;;;;;4953990;28;20031;-63
2023/04/05 04:19:57;;;;;;;13.48;8.38;;;-0.70;69.60;;;;;;4955046;28;20043;-64
2023/04/05 04:22:32;;;;;;;11.90;8.55;;;-0.80;69.70;;;;;;4954882;28;20037;-61
2023/04/05 04:25:03;;;;;;;11.23;7.72;;;-0.80;69.90;;;;;;4956252;28;20039;-63
2023/04/05 04:27:29;;;;;;;25.60;15.02;;;-0.90;70.10;;;;;;4954276;28;20039;-64
2023/04/05 04:29:55;;;;;;;17.38;11.10;;;-0.90;70.00;;;;;;4950318;28;21733;-64
2023/04/05 04:32:26;;;;;;;14.77;9.88;;;-0.90;69.90;;;;;;4954109;28;20574;-63
2023/04/05 04:34:53;;;;;;;15.55;9.82;;;-0.80;70.00;;;;;;4957995;28;20039;-60
2023/04/05 04:37:21;;;;;;;13.70;9.20;;;-0.80;70.10;;;;;;4957507;28;20031;-60
2023/04/05 04:39:47;;;;;;;18.70;9.05;;;-0.90;69.90;;;;;;4957302;28;20071;-60
2023/04/05 04:42:18;;;;;;;13.63;8.20;;;-0.90;69.80;;;;;;4958216;28;20474;-61
2023/04/05 04:44:47;;;;;;;12.30;8.40;;;-0.90;69.80;;;;;;4956639;28;20411;-61
2023/04/05 04:47:16;;;;;;;12.77;9.15;;;-0.90;69.80;;;;;;4956150;28;20043;-63
2023/04/05 04:49:42;;;;;;;12.80;8.73;;;-0.90;69.60;;;;;;4957495;28;20042;-62
2023/04/05 04:52:08;;;;;;;13.18;8.82;;;-0.90;69.70;;;;;;4957608;28;20073;-63
2023/04/05 04:54:34;;;;;;;14.85;9.00;;;-0.90;69.70;;;;;;4955983;28;20031;-64
2023/04/05 04:57:01;;;;;;;16.98;9.52;;;-0.90;69.80;;;;;;4957945;28;20050;-63
2023/04/05 04:59:27;;;;;;;15.30;9.48;;;-1.00;69.90;;;;;;4957232;28;20387;-64
2023/04/05 05:01:53;;;;;;;14.88;9.55;;;-1.00;70.00;;;;;;4957667;28;20085;-64
2023/04/05 05:04:19;;;;;;;13.30;9.27;;;-1.00;70.10;;;;;;4957909;28;20042;-64
2023/04/05 05:06:44;;;;;;;17.98;9.38;;;-1.00;70.10;;;;;;4956949;28;20036;-64
2023/04/05 05:09:10;;;;;;;15.10;9.32;;;-1.00;70.10;;;;;;4958847;28;20507;-64
2023/04/05 05:11:36;;;;;;;16.67;9.52;;;-1.10;70.10;;;;;;4957648;28;20038;-63
2023/04/05 05:14:01;;;;;;;19.35;9.77;;;-1.00;70.10;;;;;;4956970;28;20063;-63
2023/04/05 05:16:27;;;;;;;17.75;9.90;;;-1.00;70.10;;;;;;4957411;28;20705;-64
2023/04/05 05:18:53;;;;;;;18.00;10.20;;;-1.00;70.20;;;;;;4959035;28;20047;-62
2023/04/05 05:21:19;;;;;;;17.75;9.98;;;-1.10;70.20;;;;;;4958691;28;20035;-64
2023/04/05 05:23:45;;;;;;;16.83;9.95;;;-1.10;70.30;;;;;;4957989;28;20089;-63
2023/04/05 05:26:12;;;;;;;17.20;10.02;;;-1.10;70.50;;;;;;4958912;28;20573;-63
2023/04/05 05:28:38;;;;;;;19.17;10.88;;;-1.10;70.50;;;;;;4958918;28;20031;-64
2023/04/05 05:31:04;;;;;;;17.65;10.38;;;-1.10;70.60;;;;;;4958403;28;20256;-63
2023/04/05 05:33:30;;;;;;;16.90;9.48;;;-1.10;70.60;;;;;;4958973;28;20031;-63
2023/04/05 05:35:57;;;;;;;19.20;9.85;;;-1.10;70.70;;;;;;4958355;28;20545;-63
2023/04/05 05:38:22;;;;;;;23.55;10.27;;;-1.10;70.80;;;;;;4958356;28;20038;-64
2023/04/05 05:40:53;;;;;;;20.10;10.40;;;-1.10;71.00;;;;;;4955648;28;20038;-64
2023/04/05 05:43:19;;;;;;;19.52;10.63;;;-1.00;71.20;;;;;;4957488;28;20598;-63
2023/04/05 05:45:45;;;;;;;18.20;10.00;;;-1.10;71.20;;;;;;4958180;28;20121;-61
2023/04/05 05:48:11;;;;;;;18.42;10.27;;;-1.00;71.30;;;;;;4956379;28;20063;-63
2023/04/05 05:50:38;;;;;;;19.08;10.75;;;-1.00;71.50;;;;;;4955483;28;21013;-63
2023/04/05 05:53:03;;;;;;;21.20;11.55;;;-1.00;71.50;;;;;;4946197;28;20043;-63
2023/04/05 05:55:29;;;;;;;19.48;11.35;;;-0.90;71.70;;;;;;4956744;28;20031;-64
2023/04/05 05:57:55;;;;;;;22.88;11.30;;;-0.90;71.90;;;;;;4956632;28;20780;-64
2023/04/05 06:00:21;;;;;;;24.98;12.85;;;-0.90;71.90;;;;;;4956805;28;20032;-64
2023/04/05 06:02:48;;;;;;;31.75;16.77;;;-0.80;72.00;;;;;;4956596;28;20067;-64
2023/04/05 06:05:14;;;;;;;32.13;17.20;;;-0.80;72.10;;;;;;4956486;28;20455;-64
2023/04/05 06:07:40;;;;;;;31.85;17.45;;;-0.70;72.10;;;;;;4956295;28;20043;-63
2023/04/05 06:10:07;;;;;;;27.73;16.27;;;-0.70;72.20;;;;;;4957273;28;20513;-62
2023/04/05 06:12:33;;;;;;;27.17;14.90;;;-0.60;72.40;;;;;;4956052;28;20503;-63
2023/04/05 06:15:00;;;;;;;16.05;11.27;;;-0.60;72.40;;;;;;4956407;28;20035;-64
2023/04/05 06:17:26;;;;;;;14.85;9.52;;;-0.50;72.70;;;;;;4956329;28;20494;-64
2023/04/05 06:19:51;;;;;;;14.45;9.93;;;-0.40;72.90;;;;;;4957846;28;20297;-63
2023/04/05 06:22:17;;;;;;;17.80;9.98;;;-0.40;73.10;;;;;;4956890;28;20397;-62
2023/04/05 06:24:43;;;;;;;16.50;9.88;;;-0.30;73.10;;;;;;4956440;28;20056;-63
2023/04/05 06:27:08;;;;;;;15.07;9.45;;;-0.30;73.00;;;;;;4956050;28;20139;-63
2023/04/05 06:29:34;;;;;;;15.13;10.50;;;-0.20;73.10;;;;;;4955793;28;20042;-62
2023/04/05 06:32:00;;;;;;;14.73;9.55;;;-0.10;73.10;;;;;;4956269;28;20081;-63
2023/04/05 06:34:26;;;;;;;17.17;9.68;;;-0.10;72.90;;;;;;4956865;28;20118;-63
2023/04/05 06:36:51;;;;;;;18.30;9.50;;;0.00;73.00;;;;;;4955696;28;20166;-63
2023/04/05 06:39:17;;;;;;;15.50;9.27;;;0.10;72.90;;;;;;4955168;28;20043;-63
2023/04/05 06:41:43;;;;;;;14.32;9.48;;;0.20;72.80;;;;;;4955644;28;20043;-63
2023/04/05 06:44:08;;;;;;;15.23;9.15;;;0.30;72.90;;;;;;4956772;28;20212;-61
2023/04/05 06:46:34;;;;;;;13.85;9.13;;;0.30;72.40;;;;;;4954871;28;20439;-63
2023/04/05 06:48:59;;;;;;;15.75;9.32;;;0.40;72.40;;;;;;4954527;28;20054;-63
2023/04/05 06:51:27;;;;;;;13.93;9.20;;;0.50;72.40;;;;;;4956461;28;20506;-61
2023/04/05 06:53:53;;;;;;;14.57;9.05;;;0.50;72.40;;;;;;4960179;28;20042;-63
2023/04/05 06:56:19;;;;;;;17.02;9.23;;;0.60;72.20;;;;;;4958256;28;20470;-63
2023/04/05 06:58:44;;;;;;;13.43;8.75;;;0.70;72.00;;;;;;4957545;28;20269;-63
2023/04/05 07:01:10;;;;;;;15.68;9.60;;;0.80;72.10;;;;;;4960103;28;20082;-64
2023/04/05 07:03:36;;;;;;;13.98;8.65;;;0.80;72.00;;;;;;4959404;28;20488;-63
2023/04/05 07:06:03;;;;;;;20.20;9.93;;;0.90;72.00;;;;;;4958941;28;20036;-62
2023/04/05 07:08:31;;;;;;;12.13;8.55;;;1.00;72.10;;;;;;4961130;28;20129;-63
2023/04/05 07:10:57;;;;;;;16.98;9.25;;;1.10;71.90;;;;;;4961408;28;20360;-64
2023/04/05 07:13:24;;;;;;;17.13;9.27;;;1.20;71.70;;;;;;4960399;28;20439;-64
2023/04/05 07:15:50;;;;;;;11.30;7.97;;;1.20;71.60;;;;;;4958052;28;20101;-62
2023/04/05 07:18:16;;;;;;;13.60;8.75;;;1.30;71.50;;;;;;4961956;28;20522;-62
2023/04/05 07:20:45;;;;;;;15.57;9.45;;;1.40;71.70;;;;;;4961334;28;20045;-63
2023/04/05 07:23:11;;;;;;;10.48;7.80;;;1.50;71.50;;;;;;4961515;28;20031;-63
2023/04/05 07:25:39;;;;;;;12.00;8.23;;;1.60;71.30;;;;;;4960765;28;20046;-62
2023/04/05 07:28:05;;;;;;;13.57;8.68;;;1.70;71.20;;;;;;4961269;28;20938;-62
2023/04/05 07:30:30;;;;;;;13.15;8.77;;;1.70;71.00;;;;;;4960827;28;20050;-62
2023/04/05 07:32:57;;;;;;;13.05;7.82;;;1.80;71.00;;;;;;4957283;28;20054;-63
2023/04/05 07:35:22;;;;;;;12.50;8.70;;;1.90;71.10;;;;;;4959445;28;20489;-63
2023/04/05 07:37:48;;;;;;;13.20;9.23;;;1.90;70.90;;;;;;4959527;28;20046;-62
2023/04/05 07:40:14;;;;;;;11.98;8.60;;;2.00;70.90;;;;;;4957982;28;20561;-62
2023/04/05 07:42:40;;;;;;;12.27;8.48;;;2.10;70.60;;;;;;4959195;28;20035;-62
2023/04/05 07:45:06;;;;;;;13.00;8.27;;;2.20;70.80;;;;;;4958788;28;20062;-62
2023/04/05 07:47:35;;;;;;;9.75;7.13;;;2.20;70.50;;;;;;4958351;28;20097;-62
2023/04/05 07:50:01;;;;;;;12.40;7.57;;;2.40;70.30;;;;;;4959248;28;20442;-62
2023/04/05 07:52:27;;;;;;;11.77;7.50;;;2.40;70.00;;;;;;4958518;28;20042;-62
2023/04/05 07:54:52;;;;;;;12.05;8.10;;;2.50;70.00;;;;;;4959453;28;20117;-63
2023/04/05 07:57:18;;;;;;;13.02;7.43;;;2.60;69.50;;;;;;4957078;28;20050;-63
2023/04/05 07:59:44;;;;;;;10.52;7.90;;;2.70;69.30;;;;;;4958915;28;20043;-63
2023/04/05 08:02:10;;;;;;;11.90;7.72;;;2.80;69.20;;;;;;4955798;28;20129;-63
2023/04/05 08:04:36;;;;;;;16.85;8.00;;;2.90;69.00;;;;;;4958798;28;20162;-63
2023/04/05 08:07:02;;;;;;;10.15;7.60;;;3.00;68.90;;;;;;4959079;28;20027;-64
2023/04/05 08:09:27;;;;;;;11.75;8.07;;;3.00;68.70;;;;;;4958689;28;20042;-64
2023/04/05 08:11:53;;;;;;;13.50;7.45;;;3.10;68.40;;;;;;4961534;28;20534;-64
2023/04/05 08:14:18;;;;;;;10.32;7.55;;;3.20;67.90;;;;;;4960035;28;20398;-64
2023/04/05 08:16:44;;;;;;;11.65;7.45;;;3.30;67.90;;;;;;4957547;28;20034;-64
2023/04/05 08:19:09;;;;;;;10.55;7.47;;;3.30;67.40;;;;;;4958722;28;20367;-64
2023/04/05 08:21:35;;;;;;;9.68;7.03;;;3.40;67.00;;;;;;4960389;28;20035;-63
2023/04/05 08:24:01;;;;;;;9.90;6.65;;;3.60;67.30;;;;;;4958759;28;20055;-63
2023/04/05 08:26:26;;;;;;;12.25;7.10;;;3.60;67.20;;;;;;4959018;28;20094;-62
2023/04/05 08:28:52;;;;;;;10.77;6.78;;;3.70;67.10;;;;;;4958739;28;20027;-63
2023/04/05 08:31:17;;;;;;;8.77;6.90;;;3.80;66.80;;;;;;4959974;28;20034;-62
2023/04/05 08:33:43;;;;;;;13.05;7.57;;;3.90;66.80;;;;;;4958403;28;20047;-63
2023/04/05 08:36:09;;;;;;;9.52;7.43;;;4.00;65.80;;;;;;4959188;28;20047;-63
2023/04/05 08:38:35;;;;;;;12.05;7.28;;;4.10;65.00;;;;;;4958123;28;20042;-64
2023/04/05 08:41:21;;;;;;;9.98;7.35;;;4.20;65.10;;;;;;4959463;28;20109;-64
2023/04/05 08:43:58;;;;;;;12.07;6.97;;;4.20;64.20;;;;;;4959254;28;20039;-63
2023/04/05 08:46:25;;;;;;;8.77;6.65;;;4.30;64.20;;;;;;4959779;28;20469;-62
2023/04/05 08:48:50;;;;;;;11.55;6.60;;;4.40;64.40;;;;;;4958931;28;20039;-64
2023/04/05 08:51:23;;;;;;;11.20;7.05;;;4.50;64.20;;;;;;4958292;28;20042;-64
2023/04/05 08:53:49;;;;;;;11.50;8.20;;;4.50;64.30;;;;;;4957087;28;20039;-64
2023/04/05 08:56:18;;;;;;;10.40;6.93;;;4.60;63.30;;;;;;4959357;28;20057;-62
2023/04/05 08:58:58;;;;;;;9.68;6.75;;;4.70;62.80;;;;;;4958831;28;20042;-63
2023/04/05 09:01:26;;;;;;;9.45;6.70;;;4.80;62.30;;;;;;4958304;28;20051;-61
2023/04/05 09:03:53;;;;;;;9.25;6.82;;;4.90;64.00;;;;;;4957828;28;20039;-63
2023/04/05 09:06:20;;;;;;;9.38;6.70;;;4.90;63.00;;;;;;4959033;28;20141;-62
2023/04/05 09:08:46;;;;;;;10.63;7.05;;;5.00;63.90;;;;;;4958033;28;20089;-61
2023/04/05 09:11:13;;;;;;;11.07;6.70;;;5.10;63.00;;;;;;4957942;28;20419;-63
2023/04/05 09:13:39;;;;;;;10.65;7.45;;;5.20;64.30;;;;;;4957642;28;20657;-61
2023/04/05 09:16:05;;;;;;;8.93;6.63;;;5.30;62.80;;;;;;4958435;28;20054;-63
2023/04/05 09:18:30;;;;;;;5.90;5.10;;;5.40;62.70;;;;;;4956469;28;20035;-64
2023/04/05 09:21:05;;;;;;;9.40;4.70;;;5.50;62.00;;;;;;4959889;28;20055;-62
2023/04/05 09:23:33;;;;;;;6.65;4.78;;;5.70;60.90;;;;;;4957760;28;20094;-63
2023/04/05 09:25:59;;;;;;;7.20;5.13;;;5.80;61.10;;;;;;4957852;28;20058;-62
2023/04/05 09:28:44;;;;;;;8.15;5.07;;;5.90;60.50;;;;;;4958529;28;20038;-63
2023/04/05 09:31:27;;;;;;;5.63;4.30;;;6.00;58.80;;;;;;4957568;28;20036;-63
2023/04/05 09:33:56;;;;;;;8.75;4.82;;;6.10;59.70;;;;;;4959263;28;20415;-64
2023/04/05 09:36:21;;;;;;;6.43;4.75;;;6.30;59.40;;;;;;4958020;28;20368;-62
2023/04/05 09:38:47;;;;;;;4.93;4.20;;;6.30;58.80;;;;;;4957468;28;20103;-63
2023/04/05 09:41:12;;;;;;;5.20;4.53;;;6.40;58.50;;;;;;4957059;28;20039;-61
2023/04/05 09:43:40;;;;;;;8.90;4.53;;;6.50;58.50;;;;;;4958715;28;20039;-63
2023/04/05 09:46:05;;;;;;;7.28;4.60;;;6.60;58.40;;;;;;4959005;28;20062;-63
2023/04/05 09:48:50;;;;;;;5.47;4.90;;;6.70;58.20;;;;;;4957757;28;20503;-63
2023/04/05 09:51:16;;;;;;;6.78;4.85;;;6.80;56.80;;;;;;4958348;28;20043;-63
2023/04/05 09:54:08;;;;;;;5.75;4.65;;;6.80;57.90;;;;;;4958233;28;20039;-62
2023/04/05 09:56:39;;;;;;;5.90;4.72;;;6.90;57.20;;;;;;4957001;28;20162;-63
2023/04/05 09:59:09;;;;;;;6.30;5.07;;;7.00;57.20;;;;;;4957962;28;20101;-63
2023/04/05 10:01:36;;;;;;;5.97;4.75;;;7.10;56.90;;;;;;4956104;28;20038;-63
2023/04/05 10:04:02;;;;;;;6.43;4.72;;;7.10;56.80;;;;;;4957637;28;20043;-63
2023/04/05 10:06:54;;;;;;;4.93;4.43;;;7.20;56.60;;;;;;4958246;28;20105;-59
2023/04/05 10:09:20;;;;;;;5.15;4.47;;;7.20;55.70;;;;;;4955767;28;20319;-63
2023/04/05 10:11:46;;;;;;;8.23;4.80;;;7.30;56.60;;;;;;4957548;28;20107;-63
2023/04/05 10:14:11;;;;;;;7.90;4.75;;;7.40;56.20;;;;;;4958862;28;20125;-63
2023/04/05 10:16:46;;;;;;;7.00;4.85;;;7.40;55.90;;;;;;4957250;28;20046;-63
2023/04/05 10:19:15;;;;;;;;;;;7.50;55.20;;;;;;4957088;28;20043;-64
2023/04/05 10:21:43;;;;;;;6.10;4.72;;;7.50;55.10;;;;;;4957679;28;20326;-62
2023/04/05 10:24:27;;;;;;;6.10;4.60;;;7.60;56.00;;;;;;4957474;28;20392;-63
2023/04/05 10:27:24;;;;;;;6.80;4.75;;;7.60;55.20;;;;;;4958278;28;20059;-64
2023/04/05 10:30:02;;;;;;;6.28;4.72;;;7.60;54.20;;;;;;4920209;28;20580;-62
2023/04/05 10:32:37;;;;;;;7.35;5.07;;;7.70;54.90;;;;;;4960203;28;20498;-63
2023/04/05 10:35:15;;;;;;;;;;;7.70;54.80;;;;;;4961443;28;20031;-63
2023/04/05 10:38:18;;;;;;;5.47;4.25;;;7.80;55.00;;;;;;4959805;28;19925;-63
2023/04/05 10:40:49;;;;;;;5.70;5.03;;;7.80;54.70;;;;;;4961095;28;20031;-63
2023/04/05 10:43:19;;;;;;;6.93;4.93;;;7.90;55.20;;;;;;4960474;28;20042;-63
2023/04/05 10:45:48;;;;;;;10.05;5.15;;;7.90;54.30;;;;;;4961656;28;20043;-63
2023/04/05 10:48:32;;;;;;;7.10;4.60;;;7.90;54.60;;;;;;4960371;28;20043;-63
2023/04/05 10:50:59;;;;;;;6.30;4.50;;;8.00;54.70;;;;;;4960927;28;20046;-63
2023/04/05 10:53:25;;;;;;;8.65;4.53;;;8.00;54.50;;;;;;4944147;28;20287;-64
2023/04/05 10:55:52;;;;;;;5.28;4.63;;;8.10;54.60;;;;;;4960679;28;20035;-62
2023/04/05 10:58:19;;;;;;;6.70;4.03;;;8.10;54.30;;;;;;4960657;28;20098;-64
2023/04/05 11:00:46;;;;;;;5.22;4.72;;;8.20;54.30;;;;;;4960132;28;20034;-64
2023/04/05 11:03:41;;;;;;;7.95;4.63;;;8.30;54.10;;;;;;4959323;28;20042;-62
2023/04/05 11:06:29;;;;;;;4.85;4.22;;;8.30;52.80;;;;;;4962436;28;20081;-64
2023/04/05 11:09:19;;;;;;;4.95;4.30;;;8.30;53.20;;;;;;4959411;28;20086;-63
2023/04/05 11:11:45;;;;;;;5.32;4.35;;;8.40;53.70;;;;;;4961261;28;20030;-64
2023/04/05 11:14:38;;;;;;;5.00;4.28;;;8.40;53.40;;;;;;4960580;28;20039;-62
2023/04/05 11:17:22;;;;;;;5.50;4.30;;;8.40;52.40;;;;;;4958809;28;20031;-64
2023/04/05 11:19:51;;;;;;;5.65;4.43;;;8.40;53.40;;;;;;4960460;28;20057;-63
2023/04/05 11:22:28;;;;;;;6.97;4.93;;;8.50;53.30;;;;;;4960756;28;20041;-63
2023/04/05 11:25:00;;;;;;;8.00;4.78;;;8.50;52.40;;;;;;4961800;28;20078;-63
2023/04/05 11:27:36;;;;;;;5.05;4.55;;;8.60;53.00;;;;;;4960891;28;20055;-63
2023/04/05 11:30:03;;;;;;;6.95;4.40;;;8.60;53.10;;;;;;4961202;28;20042;-62
2023/04/05 11:32:44;;;;;;;5.05;4.07;;;8.70;53.20;;;;;;4961275;28;20031;-63
2023/04/05 11:35:16;;;;;;;5.43;4.50;;;8.80;52.10;;;;;;4957290;28;20094;-61
2023/04/05 11:37:55;;;;;;;7.10;4.70;;;8.80;52.00;;;;;;4959813;28;20183;-61
2023/04/05 11:40:30;;;;;;;5.75;4.45;;;8.90;51.80;;;;;;4961070;28;20090;-63
2023/04/05 11:43:00;;;;;;;5.15;4.15;;;8.90;51.70;;;;;;4959595;28;20471;-62
2023/04/05 11:45:26;;;;;;;5.95;4.60;;;8.90;51.40;;;;;;4958069;28;20035;-64
2023/04/05 11:47:52;;;;;;;5.13;4.63;;;8.90;51.90;;;;;;4959924;28;20074;-63
2023/04/05 11:50:17;;;;;;;6.68;4.68;;;8.90;51.30;;;;;;4959468;28;20062;-62
2023/04/05 11:52:43;;;;;;;5.57;4.18;;;9.00;50.60;;;;;;4958733;28;20056;-63
2023/04/05 11:55:10;;;;;;;7.93;4.75;;;9.00;51.60;;;;;;4960117;28;20039;-64
2023/04/05 11:57:36;;;;;;;5.10;4.60;;;9.00;51.50;;;;;;4959104;28;20573;-63
2023/04/05 12:00:02;;;;;;;5.82;4.70;;;9.00;51.40;;;;;;4959121;28;20121;-63
2023/04/05 12:02:33;;;;;;;7.97;5.30;;;9.10;50.90;;;;;;4959342;28;20035;-64
2023/04/05 12:04:59;;;;;;;5.68;4.63;;;9.10;50.60;;;;;;4958217;28;20046;-62
2023/04/05 12:07:35;;;;;;;9.90;5.13;;;9.10;51.10;;;;;;4960241;28;20046;-64
2023/04/05 12:10:14;;;;;;;5.50;5.00;;;9.10;51.00;;;;;;4960428;28;20059;-63
2023/04/05 12:12:42;;;;;;;7.43;5.03;;;9.10;50.00;;;;;;4959544;28;20055;-64
2023/04/05 12:15:10;;;;;;;6.43;5.40;;;9.10;50.50;;;;;;4959901;28;20063;-63
2023/04/05 12:17:51;;;;;;;5.50;4.75;;;9.10;51.40;;;;;;4959558;28;20043;-64
2023/04/05 12:20:19;;;;;;;5.70;5.15;;;9.10;50.20;;;;;;4959557;28;20118;-63
2023/04/05 12:22:47;;;;;;;7.68;5.03;;;9.10;51.00;;;;;;4957952;28;20030;-64
2023/04/05 12:25:14;;;;;;;5.65;5.13;;;9.20;51.00;;;;;;4960103;28;20031;-63
2023/04/05 12:27:40;;;;;;;5.03;4.10;;;9.20;50.60;;;;;;4959021;28;20418;-64
2023/04/05 12:30:19;;;;;;;5.95;4.88;;;9.20;50.50;;;;;;4959959;28;20064;-64
2023/04/05 12:32:51;;;;;;;6.50;4.55;;;9.20;50.60;;;;;;4957939;28;20372;-63
2023/04/05 12:35:23;;;;;;;5.03;4.60;;;9.30;50.40;;;;;;4957068;28;20039;-63
2023/04/05 12:37:51;;;;;;;5.75;4.82;;;9.30;50.00;;;;;;4955409;28;20130;-63
2023/04/05 12:40:21;;;;;;;6.18;4.68;;;9.30;49.90;;;;;;4959578;28;20553;-63
2023/04/05 12:42:47;;;;;;;6.22;4.90;;;9.40;49.70;;;;;;4958636;28;20133;-63
2023/04/05 12:45:13;;;;;;;5.60;4.68;;;9.40;50.10;;;;;;4958697;28;20491;-64
2023/04/05 12:47:56;;;;;;;5.45;4.90;;;9.40;49.90;;;;;;4957958;28;20082;-62
2023/04/05 12:50:29;;;;;;;7.88;4.50;;;9.40;49.00;;;;;;4957800;28;20046;-63
2023/04/05 12:53:00;;;;;;;7.25;4.55;;;9.40;49.20;;;;;;4957863;28;20046;-62
2023/04/05 12:55:29;;;;;;;4.82;4.30;;;9.50;49.50;;;;;;4958485;28;20043;-62